createdAt,value
2018-12-10T00:36:58.690Z,2.93
2018-12-10T00:47:03.514Z,2.93
2018-12-10T00:57:08.210Z,3.07
2018-12-10T01:07:12.899Z,2.80
2018-12-10T01:17:17.789Z,2.97
2018-12-10T01:27:22.446Z,3.00
2018-12-10T01:37:27.125Z,2.63
2018-12-10T01:47:32.290Z,2.57
2018-12-10T01:57:36.937Z,2.60
2018-12-10T02:07:41.681Z,2.53
2018-12-10T02:17:47.284Z,2.50
2018-12-10T02:27:52.132Z,2.50
2018-12-10T02:37:56.764Z,2.27
2018-12-10T02:48:01.519Z,2.20
2018-12-10T02:58:06.298Z,2.17
2018-12-10T03:08:11.140Z,2.13
2018-12-10T03:18:16.669Z,2.20
2018-12-10T03:28:21.380Z,2.10
2018-12-10T03:38:26.030Z,2.10
2018-12-10T03:48:30.722Z,2.27
2018-12-10T03:58:36.916Z,1.60
2018-12-10T04:08:41.594Z,2.07
2018-12-10T04:18:46.333Z,1.50
2018-12-10T04:28:51.094Z,1.70
2018-12-10T04:38:55.626Z,1.50
2018-12-10T04:49:00.271Z,1.60
2018-12-10T04:59:04.877Z,1.50
2018-12-10T05:09:13.088Z,1.40
2018-12-10T05:19:18.353Z,1.33
2018-12-10T05:29:22.983Z,1.20
2018-12-10T05:39:27.688Z,1.50
2018-12-10T05:49:32.457Z,1.37
2018-12-10T05:59:37.156Z,1.10
2018-12-10T06:09:42.773Z,1.37
2018-12-10T06:19:47.408Z,1.30
2018-12-10T06:29:52.729Z,1.03
2018-12-10T06:39:58.633Z,1.10
2018-12-10T06:50:03.479Z,1.10
2018-12-10T07:00:11.023Z,1.10
2018-12-10T07:10:15.618Z,1.23
2018-12-10T07:20:20.295Z,1.03
2018-12-10T07:30:25.051Z,5.50
2018-12-10T07:40:29.776Z,5.23
2018-12-10T07:50:34.746Z,4.63
2018-12-10T08:00:39.636Z,1.93
2018-12-10T08:10:44.491Z,1.80
2018-12-10T08:20:49.074Z,1.63
2018-12-10T08:30:53.899Z,1.60
2018-12-10T08:40:58.624Z,1.17
2018-12-10T08:51:03.959Z,1.20
2018-12-10T09:01:08.811Z,1.20
2018-12-10T09:11:13.594Z,1.60
2018-12-10T09:21:18.329Z,1.30
2018-12-10T09:31:23.047Z,1.20
2018-12-10T09:41:27.737Z,1.27
2018-12-10T09:51:32.402Z,1.00
2018-12-10T10:01:37.097Z,1.03
2018-12-10T10:11:41.957Z,1.00
2018-12-10T10:21:46.727Z,1.00
2018-12-10T10:31:52.047Z,1.23
2018-12-10T10:41:57.439Z,1.47
2018-12-10T10:52:02.293Z,1.10
2018-12-10T11:02:12.200Z,1.30
2018-12-10T11:12:17.115Z,1.53
2018-12-10T11:22:21.852Z,1.60
2018-12-10T11:32:27.228Z,1.20
2018-12-10T11:42:32.253Z,1.57
2018-12-10T11:52:37.683Z,1.50
2018-12-10T12:02:43.573Z,1.50
2018-12-10T12:12:48.630Z,1.37
2018-12-10T12:22:53.390Z,1.40
2018-12-10T12:32:58.755Z,1.17
2018-12-10T12:43:07.027Z,1.27
2018-12-10T12:53:11.129Z,1.20
2018-12-10T13:03:17.060Z,1.23
2018-12-10T13:13:21.821Z,1.10
2018-12-10T13:23:28.675Z,1.40
2018-12-10T13:33:34.073Z,2.00
2018-12-10T13:43:38.775Z,2.30
2018-12-10T13:53:44.071Z,2.20
2018-12-10T14:03:49.036Z,3.47
2018-12-10T14:13:54.607Z,3.20
2018-12-10T14:23:59.442Z,3.10
2018-12-10T14:34:09.711Z,3.40
2018-12-10T14:44:14.926Z,3.27
2018-12-10T14:54:20.184Z,3.10
2018-12-10T15:04:25.388Z,2.77
2018-12-10T15:14:30.305Z,2.60
2018-12-10T15:24:35.111Z,2.90
2018-12-10T15:34:40.027Z,2.40
2018-12-10T15:44:45.461Z,2.57
2018-12-10T15:54:50.087Z,2.33
2018-12-10T16:04:55.709Z,3.10
2018-12-10T16:15:00.423Z,2.77
2018-12-10T16:25:06.664Z,2.80
2018-12-10T16:35:11.251Z,2.77
2018-12-10T16:45:16.478Z,2.73
2018-12-10T16:55:21.183Z,2.57
2018-12-10T17:05:29.458Z,2.20
2018-12-10T17:15:34.977Z,3.50
2018-12-10T17:25:39.703Z,3.03
2018-12-10T17:35:45.085Z,3.00
2018-12-10T17:45:49.709Z,2.60
2018-12-10T17:55:54.752Z,2.07
2018-12-10T18:05:59.495Z,2.30
2018-12-10T18:16:04.567Z,2.13
2018-12-10T18:26:09.323Z,2.23
2018-12-10T18:36:14.122Z,1.93
2018-12-10T18:46:20.031Z,2.30
2018-12-10T18:56:24.729Z,2.07
2018-12-10T19:06:29.982Z,2.10
2018-12-10T19:16:35.010Z,2.40
2018-12-10T19:26:40.254Z,2.30
2018-12-10T19:36:44.970Z,2.10
2018-12-10T19:46:49.992Z,2.30
2018-12-10T19:56:55.366Z,1.70
2018-12-10T20:07:06.946Z,1.63
2018-12-10T20:17:11.778Z,1.90
2018-12-10T20:27:16.527Z,1.60
2018-12-10T20:37:21.667Z,1.83
2018-12-10T20:47:26.266Z,1.60
2018-12-10T20:57:32.294Z,1.30
2018-12-10T21:07:37.908Z,1.30
2018-12-10T21:17:42.550Z,2.00
2018-12-10T21:27:47.959Z,1.70
2018-12-10T21:37:52.747Z,1.70
2018-12-10T21:47:58.048Z,1.60
2018-12-10T21:58:02.946Z,1.67
2018-12-10T22:08:07.956Z,1.70
2018-12-10T22:18:13.243Z,1.50
2018-12-10T22:28:18.413Z,1.53
2018-12-10T22:38:23.924Z,1.57
2018-12-10T22:48:28.832Z,1.40
2018-12-10T22:58:33.563Z,1.50
2018-12-10T23:08:38.724Z,1.70
2018-12-10T23:18:43.384Z,1.80
2018-12-10T23:28:50.619Z,1.70
2018-12-10T23:38:55.864Z,1.80
2018-12-10T23:49:00.645Z,1.80
2018-12-10T23:59:05.807Z,1.50
